Time;durP1;ratioP1;P1;durP2;ratioP2;P2;SDS_P1;SDS_P2;PMS_P1;PMS_P2;Temp;Humidity;BMP_temperature;BMP_pressure;BME280_temperature;BME280_humidity;BME280_pressure;Samples;Min_cycle;Max_cycle;Signal;HPM_P1;HPM_P2
2022/03/27 00:01:19;;;;;;;6.15;3.38;;;9.20;88.80;;;;;;5090855;28;20032;-76
2022/03/27 00:03:45;;;;;;;4.47;3.47;;;9.30;89.20;;;;;;5075708;28;20032;-77
2022/03/27 00:06:11;;;;;;;6.07;3.38;;;9.30;90.00;;;;;;5090262;28;20107;-77
2022/03/27 00:08:37;;;;;;;5.50;3.28;;;9.30;89.50;;;;;;5089937;28;20091;-77
2022/03/27 00:13:47;;;;;;;8.15;4.07;;;9.50;88.60;;;;;;5089940;28;20039;-77
2022/03/27 00:16:14;;;;;;;7.13;4.05;;;9.60;88.20;;;;;;5090546;28;20028;-77
2022/03/27 00:18:41;;;;;;;6.57;3.50;;;9.70;88.00;;;;;;5092084;28;20027;-77
2022/03/27 00:21:07;;;;;;;4.50;3.15;;;9.60;88.40;;;;;;5090486;28;20474;-77
2022/03/27 00:23:33;;;;;;;5.65;3.35;;;9.70;87.90;;;;;;5084546;28;20031;-77
2022/03/27 00:25:59;;;;;;;8.80;4.15;;;9.90;87.00;;;;;;5089885;28;20020;-76
2022/03/27 00:28:26;;;;;;;10.50;4.35;;;9.90;87.30;;;;;;5090546;28;20020;-76
2022/03/27 00:30:52;;;;;;;8.27;3.65;;;9.80;88.50;;;;;;5090054;28;20115;-77
2022/03/27 00:33:18;;;;;;;6.93;3.95;;;9.80;88.30;;;;;;5090097;28;20016;-76
2022/03/27 00:35:45;;;;;;;6.30;4.10;;;9.80;87.90;;;;;;5081753;28;20177;-77
2022/03/27 00:38:10;;;;;;;6.43;3.63;;;9.80;88.00;;;;;;5080997;28;20029;-77
2022/03/27 00:40:36;;;;;;;6.70;4.03;;;9.80;87.90;;;;;;5089757;28;20097;-76
2022/03/27 00:43:02;;;;;;;5.68;4.05;;;9.80;88.60;;;;;;5090372;28;20437;-77
2022/03/27 00:45:28;;;;;;;6.18;3.80;;;9.70;89.20;;;;;;5089608;28;20020;-77
2022/03/27 00:47:54;;;;;;;7.93;3.92;;;9.80;88.00;;;;;;5089714;28;20073;-77
2022/03/27 00:50:21;;;;;;;7.35;4.03;;;9.80;89.70;;;;;;5089158;28;20028;-77
2022/03/27 00:52:46;;;;;;;5.72;3.72;;;9.80;88.70;;;;;;5088791;28;20024;-77
2022/03/27 00:55:13;;;;;;;9.57;3.83;;;9.70;88.80;;;;;;5089481;28;20055;-77
2022/03/27 00:57:39;;;;;;;7.68;4.18;;;9.90;88.20;;;;;;5091685;28;20145;-77
2022/03/27 01:00:09;;;;;;;6.25;3.92;;;9.90;88.50;;;;;;5089421;28;20040;-77
2022/03/27 01:02:36;;;;;;;7.00;4.00;;;9.80;88.50;;;;;;5083669;28;20035;-77
2022/03/27 01:05:08;;;;;;;6.50;3.72;;;9.80;90.00;;;;;;5088394;28;20538;-77
2022/03/27 01:07:34;;;;;;;7.53;4.32;;;9.80;89.30;;;;;;5088301;28;20024;-77
2022/03/27 01:09:59;;;;;;;7.53;3.65;;;9.70;89.90;;;;;;5089557;28;20021;-77
2022/03/27 01:12:35;;;;;;;9.38;3.65;;;9.80;89.60;;;;;;5091119;28;20502;-77
2022/03/27 01:15:02;;;;;;;5.93;3.08;;;9.80;89.10;;;;;;5089593;28;20106;-77
2022/03/27 01:17:29;;;;;;;6.32;3.95;;;9.80;90.10;;;;;;5081025;28;20021;-77
2022/03/27 01:19:56;;;;;;;6.75;3.55;;;9.80;90.00;;;;;;5080689;28;20077;-76
2022/03/27 01:22:23;;;;;;;7.00;3.30;;;9.80;90.10;;;;;;5085299;28;20020;-77
2022/03/27 01:24:51;;;;;;;6.78;3.95;;;9.80;90.50;;;;;;5085256;28;20489;-77
2022/03/27 01:27:17;;;;;;;7.40;3.95;;;9.70;90.60;;;;;;5081758;28;20519;-77
2022/03/27 01:29:43;;;;;;;6.70;3.70;;;9.60;91.10;;;;;;5089123;28;20020;-76
2022/03/27 01:32:14;;;;;;;6.93;3.10;;;9.50;90.70;;;;;;5088630;28;20443;-77
2022/03/27 01:34:44;;;;;;;5.15;3.00;;;9.70;90.50;;;;;;5089145;28;20489;-77
2022/03/27 01:37:12;;;;;;;4.50;2.80;;;9.50;90.90;;;;;;5088988;28;20040;-77
2022/03/27 01:39:38;;;;;;;9.73;3.78;;;9.60;90.50;;;;;;5089541;28;20786;-77
2022/03/27 01:42:05;;;;;;;5.15;3.53;;;9.70;91.20;;;;;;5088375;28;20013;-77
2022/03/27 01:44:31;;;;;;;7.50;3.53;;;9.60;90.50;;;;;;5088945;28;20101;-77
2022/03/27 01:46:57;;;;;;;5.38;3.42;;;9.70;90.80;;;;;;5083541;28;20020;-77
2022/03/27 01:49:23;;;;;;;5.10;3.40;;;9.70;90.50;;;;;;5087448;28;20291;-76
2022/03/27 01:51:49;;;;;;;5.88;3.55;;;9.70;90.50;;;;;;5090856;28;20048;-77
2022/03/27 01:54:14;;;;;;;4.90;3.20;;;9.70;91.30;;;;;;5088820;28;20094;-77
2022/03/27 01:56:41;;;;;;;4.57;2.95;;;9.60;91.50;;;;;;5080763;28;20074;-77
2022/03/27 01:59:08;;;;;;;3.42;2.70;;;9.50;92.60;;;;;;5079640;28;20497;-77
2022/03/27 02:01:36;;;;;;;3.95;2.83;;;9.50;92.40;;;;;;5088887;28;20023;-77
2022/03/27 02:04:03;;;;;;;5.35;3.17;;;9.40;92.20;;;;;;5071160;28;20025;-77
2022/03/27 02:06:30;;;;;;;4.95;2.78;;;9.40;93.00;;;;;;5090470;28;20020;-77
2022/03/27 02:08:58;;;;;;;4.38;3.20;;;9.30;93.00;;;;;;5089046;28;20020;-77
2022/03/27 02:11:24;;;;;;;7.25;3.80;;;9.20;93.20;;;;;;5088286;28;20038;-77
2022/03/27 02:13:50;;;;;;;4.68;2.67;;;8.90;93.20;;;;;;5088708;28;20494;-77
2022/03/27 02:16:17;;;;;;;4.95;2.75;;;9.00;93.30;;;;;;5084386;28;20032;-77
2022/03/27 02:18:42;;;;;;;2.97;2.67;;;9.00;93.40;;;;;;5085907;28;20504;-77
2022/03/27 02:21:08;;;;;;;4.35;2.90;;;9.00;92.90;;;;;;5082949;28;20058;-77
2022/03/27 02:23:34;;;;;;;5.68;2.97;;;8.90;93.40;;;;;;5080220;28;20465;-77
2022/03/27 02:25:59;;;;;;;4.00;2.80;;;8.80;93.00;;;;;;5088096;28;20496;-77
2022/03/27 02:28:25;;;;;;;3.95;3.03;;;8.80;93.30;;;;;;5089055;28;20020;-77
2022/03/27 02:30:52;;;;;;;5.60;3.30;;;8.70;94.00;;;;;;5089290;28;20510;-76
2022/03/27 02:33:18;;;;;;;7.70;2.95;;;8.60;93.60;;;;;;5081703;28;20139;-77
2022/03/27 02:35:43;;;;;;;9.48;3.35;;;8.70;93.80;;;;;;5079959;28;20482;-77
2022/03/27 02:38:10;;;;;;;4.97;3.42;;;8.70;94.50;;;;;;5088145;28;20040;-77
2022/03/27 02:40:40;;;;;;;3.50;2.90;;;8.60;95.00;;;;;;5087318;28;20024;-77
2022/03/27 02:43:06;;;;;;;3.08;2.78;;;8.50;95.80;;;;;;5088518;28;20111;-77
2022/03/27 02:45:32;;;;;;;4.28;2.85;;;8.40;96.10;;;;;;5090322;28;20504;-77
2022/03/27 02:47:59;;;;;;;3.85;2.90;;;8.40;95.60;;;;;;5079519;28;20028;-77
2022/03/27 02:50:26;;;;;;;5.95;3.35;;;8.40;95.90;;;;;;5088030;28;20020;-77
2022/03/27 02:52:53;;;;;;;4.20;2.58;;;8.20;96.60;;;;;;5088307;28;20024;-77
2022/03/27 02:55:20;;;;;;;5.07;3.40;;;8.10;96.90;;;;;;5088780;28;20024;-77
2022/03/27 02:57:46;;;;;;;5.38;3.22;;;8.10;97.00;;;;;;5090558;28;20027;-77
2022/03/27 03:00:12;;;;;;;4.15;3.03;;;8.10;97.20;;;;;;5079393;28;20565;-77
2022/03/27 03:02:38;;;;;;;3.83;2.72;;;8.10;96.70;;;;;;5089302;28;20124;-77
2022/03/27 03:05:08;;;;;;;3.30;2.70;;;8.10;97.00;;;;;;5085774;28;20025;-77
2022/03/27 03:07:34;;;;;;;3.17;2.60;;;8.20;96.40;;;;;;5073424;28;20032;-77
2022/03/27 03:10:02;;;;;;;6.97;3.10;;;8.30;96.00;;;;;;5088287;28;20020;-77
2022/03/27 03:12:28;;;;;;;4.18;3.22;;;8.30;95.60;;;;;;5093338;28;20065;-77
2022/03/27 03:14:56;;;;;;;3.45;2.45;;;8.20;96.20;;;;;;5082870;28;20111;-77
2022/03/27 03:17:22;;;;;;;4.43;2.67;;;8.30;95.70;;;;;;5091566;28;20020;-77
2022/03/27 03:19:48;;;;;;;4.20;3.00;;;8.10;96.10;;;;;;5090541;28;20114;-77
2022/03/27 03:22:14;;;;;;;7.38;3.67;;;8.00;96.30;;;;;;5089104;28;20556;-77
2022/03/27 03:24:40;;;;;;;6.78;3.65;;;8.00;96.70;;;;;;5092387;28;20081;-77
2022/03/27 03:27:06;;;;;;;7.15;3.10;;;7.90;96.50;;;;;;5091561;28;20032;-77
2022/03/27 03:29:32;;;;;;;4.40;3.13;;;7.80;96.80;;;;;;5085740;28;20485;-77
2022/03/27 03:31:57;;;;;;;5.03;3.47;;;7.70;97.20;;;;;;5082820;28;20020;-77
2022/03/27 03:34:23;;;;;;;5.68;3.13;;;7.70;97.10;;;;;;5091755;28;20028;-77
2022/03/27 03:36:49;;;;;;;5.07;2.70;;;7.60;97.30;;;;;;5092264;28;20032;-77
2022/03/27 03:39:15;;;;;;;5.07;3.22;;;7.60;97.50;;;;;;5092002;28;20485;-77
2022/03/27 03:41:40;;;;;;;4.78;3.17;;;7.40;97.40;;;;;;5090905;28;20065;-77
2022/03/27 03:44:07;;;;;;;8.52;3.22;;;7.50;97.00;;;;;;5090839;28;20024;-77
2022/03/27 03:46:33;;;;;;;4.95;3.17;;;7.30;97.30;;;;;;5089375;28;20024;-77
2022/03/27 03:48:59;;;;;;;3.50;2.53;;;7.30;97.50;;;;;;5070334;28;20493;-77
2022/03/27 03:51:25;;;;;;;4.28;3.05;;;7.30;97.50;;;;;;5073332;28;20580;-77
2022/03/27 03:53:51;;;;;;;3.38;2.38;;;7.30;97.90;;;;;;5087981;28;20044;-77
2022/03/27 03:56:18;;;;;;;3.58;2.67;;;7.30;98.10;;;;;;5090823;28;20044;-77
2022/03/27 03:58:44;;;;;;;6.18;3.25;;;7.30;98.10;;;;;;5091076;28;20043;-77
2022/03/27 04:01:10;;;;;;;4.93;2.90;;;7.30;98.00;;;;;;5090940;28;20030;-77
2022/03/27 04:03:35;;;;;;;4.15;3.15;;;7.30;97.80;;;;;;5092746;28;20517;-77
2022/03/27 04:06:01;;;;;;;7.03;2.97;;;7.30;97.90;;;;;;5079804;28;20047;-76
2022/03/27 04:08:27;;;;;;;4.32;3.08;;;7.30;98.10;;;;;;5078397;28;20069;-77
2022/03/27 04:10:52;;;;;;;3.97;2.70;;;7.30;98.20;;;;;;5088367;28;20012;-77
2022/03/27 04:13:18;;;;;;;5.38;3.17;;;7.40;98.10;;;;;;5090720;28;20028;-77
2022/03/27 04:15:43;;;;;;;4.43;3.00;;;7.40;98.00;;;;;;5092339;28;20055;-77
2022/03/27 04:18:09;;;;;;;4.97;3.05;;;7.50;97.70;;;;;;5090390;28;20035;-77
2022/03/27 04:20:36;;;;;;;6.30;3.30;;;7.40;97.90;;;;;;5090300;28;20095;-78
2022/03/27 04:23:02;;;;;;;4.47;3.30;;;7.30;98.10;;;;;;5082831;28;20131;-77
2022/03/27 04:25:28;;;;;;;6.13;3.65;;;7.30;98.40;;;;;;5090310;28;20024;-77
2022/03/27 04:27:54;;;;;;;8.15;3.85;;;7.20;98.50;;;;;;5090883;28;20081;-77
2022/03/27 04:30:20;;;;;;;4.75;2.97;;;7.40;98.10;;;;;;5091578;28;20055;-77
2022/03/27 04:32:47;;;;;;;5.97;3.47;;;7.40;98.30;;;;;;5090111;28;20072;-77
2022/03/27 04:35:13;;;;;;;5.70;3.67;;;7.30;98.50;;;;;;5081664;28;20108;-77
2022/03/27 04:37:43;;;;;;;6.38;3.25;;;7.40;98.90;;;;;;5090464;28;20095;-77
2022/03/27 04:40:13;;;;;;;4.80;3.13;;;7.20;99.40;;;;;;5090012;28;20091;-77
2022/03/27 04:42:38;;;;;;;7.45;3.53;;;7.30;98.80;;;;;;5090900;28;20050;-77
2022/03/27 04:45:05;;;;;;;4.63;2.78;;;7.30;99.20;;;;;;5090051;28;20049;-77
2022/03/27 04:47:30;;;;;;;5.30;3.28;;;7.30;99.50;;;;;;5081558;28;20020;-77
2022/03/27 04:49:56;;;;;;;5.95;3.60;;;7.20;99.70;;;;;;5089305;28;20505;-77
2022/03/27 04:52:21;;;;;;;7.82;3.67;;;7.20;99.60;;;;;;5090197;28;20088;-77
2022/03/27 04:54:47;;;;;;;6.50;3.60;;;7.10;99.70;;;;;;5091465;28;20048;-77
2022/03/27 04:57:13;;;;;;;5.93;3.80;;;7.20;99.50;;;;;;5074178;28;20024;-77
2022/03/27 04:59:38;;;;;;;5.28;3.63;;;7.30;99.50;;;;;;5076527;28;20513;-77
2022/03/27 05:02:05;;;;;;;7.22;3.80;;;7.30;99.50;;;;;;5089374;28;20028;-77
2022/03/27 05:04:31;;;;;;;5.07;4.18;;;7.30;99.00;;;;;;5087620;28;20093;-77
2022/03/27 05:06:57;;;;;;;8.77;4.03;;;7.30;99.00;;;;;;5069733;28;20506;-77
2022/03/27 05:09:23;;;;;;;9.70;3.83;;;7.20;99.60;;;;;;5082445;28;20032;-77
2022/03/27 05:11:49;;;;;;;4.60;3.42;;;7.30;99.40;;;;;;5080206;28;20040;-77
2022/03/27 05:14:15;;;;;;;12.20;4.25;;;7.40;99.40;;;;;;5080127;28;20121;-77
2022/03/27 05:16:40;;;;;;;6.35;4.13;;;7.30;99.60;;;;;;5084666;28;20186;-77
2022/03/27 05:19:06;;;;;;;7.13;3.15;;;7.30;99.80;;;;;;5087654;28;20446;-77
2022/03/27 05:21:33;;;;;;;7.35;4.05;;;7.30;99.70;;;;;;5089973;28;20579;-77
2022/03/27 05:24:00;;;;;;;5.40;3.40;;;7.30;99.90;;;;;;5087137;28;20047;-77
2022/03/27 05:26:26;;;;;;;6.60;4.32;;;7.20;99.90;;;;;;5082020;28;20021;-77
2022/03/27 05:28:53;;;;;;;5.15;3.58;;;7.10;99.90;;;;;;5077996;28;20100;-77
2022/03/27 05:31:18;;;;;;;7.40;4.13;;;7.10;99.90;;;;;;5089486;28;20023;-77
2022/03/27 05:33:44;;;;;;;5.07;3.67;;;7.10;99.90;;;;;;5091295;28;20512;-77
2022/03/27 05:36:10;;;;;;;6.30;3.58;;;6.90;99.90;;;;;;5083276;28;20031;-77
2022/03/27 05:38:39;;;;;;;4.78;3.47;;;7.00;99.90;;;;;;5088926;28;20028;-77
2022/03/27 05:41:09;;;;;;;5.60;3.63;;;7.20;99.90;;;;;;5089012;28;20063;-77
2022/03/27 05:43:35;;;;;;;7.20;4.03;;;6.90;99.90;;;;;;5089434;28;20020;-77
2022/03/27 05:46:02;;;;;;;5.88;3.55;;;7.00;99.90;;;;;;5089130;28;20022;-77
2022/03/27 05:48:28;;;;;;;6.88;3.63;;;7.00;99.90;;;;;;5089319;28;20028;-77
2022/03/27 05:50:54;;;;;;;5.97;3.70;;;7.10;99.90;;;;;;5075654;28;20508;-77
2022/03/27 05:53:19;;;;;;;6.30;3.90;;;7.00;99.90;;;;;;5072194;28;20066;-77
2022/03/27 05:55:47;;;;;;;5.65;3.80;;;7.00;99.90;;;;;;5075461;28;20410;-77
2022/03/27 05:58:13;;;;;;;6.68;4.20;;;7.10;99.90;;;;;;5087816;28;20043;-77
2022/03/27 06:00:40;;;;;;;6.50;3.75;;;7.10;99.90;;;;;;5090664;28;20016;-77
2022/03/27 06:03:05;;;;;;;6.50;3.67;;;6.90;99.90;;;;;;5087682;28;20032;-77
2022/03/27 06:05:31;;;;;;;6.43;4.18;;;7.10;99.90;;;;;;5088582;28;20054;-77
2022/03/27 06:07:59;;;;;;;5.03;3.80;;;7.00;99.90;;;;;;5088265;28;20405;-77
2022/03/27 06:10:31;;;;;;;6.88;3.90;;;7.10;99.90;;;;;;5088708;28;20083;-77
2022/03/27 06:12:57;;;;;;;8.50;3.58;;;7.30;99.90;;;;;;5088746;28;20028;-77
2022/03/27 06:15:24;;;;;;;4.00;3.00;;;7.30;99.90;;;;;;5074213;28;20520;-77
2022/03/27 06:17:51;;;;;;;5.72;3.33;;;7.30;99.90;;;;;;5076873;28;20528;-77
2022/03/27 06:20:23;;;;;;;7.40;3.88;;;7.30;99.90;;;;;;5088677;28;20024;-77
2022/03/27 06:22:50;;;;;;;5.68;3.60;;;7.40;99.90;;;;;;5080832;28;20172;-77
2022/03/27 06:25:19;;;;;;;7.47;4.13;;;7.50;99.90;;;;;;5084785;28;20021;-77
2022/03/27 06:27:45;;;;;;;5.63;3.45;;;7.60;99.90;;;;;;5086150;28;20027;-77
2022/03/27 06:30:15;;;;;;;7.35;3.60;;;7.70;99.90;;;;;;5079766;28;20162;-77
2022/03/27 06:32:42;;;;;;;8.18;4.53;;;8.00;99.90;;;;;;5088546;28;20039;-77
2022/03/27 06:35:10;;;;;;;7.43;4.18;;;8.50;99.20;;;;;;5088270;28;20039;-77
2022/03/27 06:37:37;;;;;;;6.60;3.90;;;8.60;98.80;;;;;;5090024;28;20516;-77
2022/03/27 06:40:04;;;;;;;7.55;3.78;;;8.60;98.70;;;;;;5092631;28;20024;-77
2022/03/27 06:42:30;;;;;;;5.68;3.78;;;8.70;98.80;;;;;;5094164;28;20055;-77
2022/03/27 06:44:57;;;;;;;6.03;3.80;;;8.50;99.90;;;;;;5092413;28;20023;-77
2022/03/27 06:47:25;;;;;;;6.20;3.40;;;8.50;99.90;;;;;;5091118;28;20554;-77
2022/03/27 06:49:51;;;;;;;7.10;4.22;;;8.70;99.90;;;;;;5091585;28;20023;-77
2022/03/27 06:52:18;;;;;;;6.72;4.32;;;9.00;99.90;;;;;;5091248;28;20032;-77
2022/03/27 06:54:45;;;;;;;8.75;4.55;;;8.90;99.90;;;;;;5092553;28;20051;-77
2022/03/27 06:57:11;;;;;;;8.48;4.47;;;9.10;99.90;;;;;;5085916;28;20024;-76
2022/03/27 07:05:06;;;;;;;5.85;4.70;;;10.00;99.20;;;;;;5092073;28;20031;-76
2022/03/27 07:07:32;;;;;;;8.73;4.55;;;10.80;98.10;;;;;;5092001;28;20364;-76
2022/03/27 07:09:58;;;;;;;7.53;5.25;;;12.40;96.00;;;;;;5092132;28;20047;-76
2022/03/27 07:12:25;;;;;;;6.55;4.00;;;14.20;92.50;;;;;;5093457;28;20047;-76
2022/03/27 07:14:51;;;;;;;6.88;3.92;;;15.30;90.70;;;;;;5083260;28;20028;-76
2022/03/27 07:17:18;;;;;;;6.50;4.15;;;16.40;90.10;;;;;;5091570;28;20485;-76
2022/03/27 07:19:44;;;;;;;5.28;3.90;;;17.40;86.70;;;;;;5092093;28;20020;-76
2022/03/27 07:22:10;;;;;;;8.75;4.07;;;17.80;83.90;;;;;;5090386;28;20032;-76
2022/03/27 07:24:36;;;;;;;8.65;4.53;;;17.70;82.80;;;;;;5093494;28;20027;-76
2022/03/27 07:27:02;;;;;;;5.97;3.90;;;18.10;82.70;;;;;;5091340;28;20485;-76
2022/03/27 07:29:30;;;;;;;6.90;3.72;;;17.90;83.30;;;;;;5091574;28;20047;-76
2022/03/27 07:31:57;;;;;;;8.13;3.90;;;18.70;81.10;;;;;;5090088;28;20043;-76
2022/03/27 07:34:22;;;;;;;5.03;3.50;;;19.00;80.00;;;;;;5087575;28;20021;-76
2022/03/27 07:36:48;;;;;;;6.70;4.40;;;19.20;79.60;;;;;;5088993;28;20639;-76
2022/03/27 07:39:14;;;;;;;7.45;4.00;;;19.90;77.70;;;;;;5084737;28;20031;-76
2022/03/27 07:41:39;;;;;;;6.65;3.95;;;19.60;77.00;;;;;;5088915;28;20427;-76
2022/03/27 07:44:06;;;;;;;6.25;4.45;;;19.50;76.40;;;;;;5089196;28;20115;-76
2022/03/27 07:46:32;;;;;;;9.25;4.40;;;19.10;77.50;;;;;;5091433;28;20024;-76
2022/03/27 07:48:58;;;;;;;6.50;4.20;;;19.60;75.80;;;;;;5091221;28;20027;-76
2022/03/27 07:51:24;;;;;;;6.13;4.55;;;20.00;75.30;;;;;;5092172;28;20469;-76
2022/03/27 07:53:50;;;;;;;7.13;3.88;;;20.00;76.10;;;;;;5082420;28;20040;-76
2022/03/27 07:56:15;;;;;;;6.95;3.83;;;20.30;75.90;;;;;;5090878;28;20494;-76
2022/03/27 07:58:41;;;;;;;9.68;4.05;;;20.30;75.40;;;;;;5086311;28;20425;-76
2022/03/27 08:01:07;;;;;;;6.85;4.00;;;20.20;76.10;;;;;;5088130;28;20028;-76
2022/03/27 08:03:38;;;;;;;5.22;3.95;;;19.80;76.70;;;;;;5092620;28;20020;-76
2022/03/27 08:06:04;;;;;;;7.32;4.78;;;20.10;77.50;;;;;;5089385;28;20122;-76
2022/03/27 08:08:31;;;;;;;6.30;4.60;;;20.20;78.30;;;;;;5082614;28;20157;-76
2022/03/27 08:10:56;;;;;;;6.60;3.90;;;19.80;77.30;;;;;;5071010;28;20020;-76
2022/03/27 08:13:22;;;;;;;10.50;4.55;;;19.40;78.30;;;;;;5089717;28;20027;-77
2022/03/27 08:15:48;;;;;;;7.60;4.40;;;18.70;78.10;;;;;;5092439;28;20493;-76
2022/03/27 08:18:14;;;;;;;7.25;4.85;;;18.10;79.90;;;;;;5090051;28;20107;-76
2022/03/27 08:20:40;;;;;;;9.57;4.35;;;17.80;81.30;;;;;;5081728;28;20424;-76
2022/03/27 08:23:09;;;;;;;7.35;5.30;;;17.50;80.20;;;;;;5082242;28;20115;-76
2022/03/27 08:28:20;;;;;;;11.48;5.72;;;17.30;81.10;;;;;;5075037;28;20057;-76
2022/03/27 08:30:48;;;;;;;7.07;5.35;;;17.80;80.20;;;;;;5090995;28;20028;-76
2022/03/27 08:33:15;;;;;;;10.60;4.85;;;17.80;79.80;;;;;;5089817;28;20047;-76
2022/03/27 08:35:42;;;;;;;8.20;5.32;;;17.50;81.00;;;;;;5082082;28;20135;-76
2022/03/27 08:38:15;;;;;;;9.30;5.32;;;18.00;81.80;;;;;;5074673;28;20028;-76
2022/03/27 08:40:43;;;;;;;12.35;6.00;;;17.90;80.70;;;;;;5083213;28;20040;-76
2022/03/27 08:43:14;;;;;;;9.25;5.10;;;17.90;81.00;;;;;;5087663;28;20020;-76
2022/03/27 08:45:41;;;;;;;9.40;5.55;;;17.80;82.10;;;;;;5091972;28;20020;-77
2022/03/27 08:48:07;;;;;;;9.50;5.13;;;18.30;81.50;;;;;;5089939;28;20044;-76
2022/03/27 08:50:59;;;;;;;8.65;5.07;;;18.60;81.50;;;;;;5088710;28;20485;-76
2022/03/27 08:53:56;;;;;;;6.80;4.30;;;19.00;81.70;;;;;;5083117;28;20052;-76
2022/03/27 08:56:24;;;;;;;12.85;5.78;;;18.40;80.50;;;;;;4999724;28;20041;-76
2022/03/27 08:58:49;;;;;;;7.35;4.38;;;17.60;81.20;;;;;;5012190;28;20052;-76
2022/03/27 09:01:17;;;;;;;12.18;5.50;;;17.90;82.40;;;;;;5023434;28;20563;-76
2022/03/27 09:03:44;;;;;;;10.73;5.38;;;18.50;81.10;;;;;;5028962;28;20021;-76
2022/03/27 09:06:09;;;;;;;7.43;4.88;;;18.80;81.00;;;;;;5026081;28;20279;-76
2022/03/27 09:08:36;;;;;;;13.05;5.13;;;18.50;80.10;;;;;;5023274;28;20080;-76
2022/03/27 09:11:03;;;;;;;9.32;5.47;;;17.80;81.70;;;;;;5024058;28;20033;-76
2022/03/27 09:13:30;;;;;;;10.13;4.93;;;18.40;82.30;;;;;;5023865;28;20044;-77
2022/03/27 09:16:05;;;;;;;10.57;5.10;;;18.50;80.30;;;;;;5027032;28;20044;-77
2022/03/27 09:18:55;;;;;;;10.50;5.15;;;19.00;80.80;;;;;;5027138;28;20039;-78
2022/03/27 09:21:27;;;;;;;10.45;4.65;;;18.80;81.70;;;;;;5025078;28;20077;-77
2022/03/27 09:24:02;;;;;;;9.75;5.43;;;18.70;78.20;;;;;;5023355;28;20510;-77
2022/03/27 09:26:31;;;;;;;13.60;5.80;;;18.30;80.50;;;;;;5001472;28;20076;-76
2022/03/27 09:29:08;;;;;;;13.43;5.45;;;18.20;80.10;;;;;;4999618;28;20017;-76
2022/03/27 09:31:34;;;;;;;9.80;5.00;;;17.70;82.70;;;;;;4995166;28;20037;-76
2022/03/27 09:34:02;;;;;;;10.57;5.00;;;18.20;82.80;;;;;;5057740;28;20037;-76
2022/03/27 09:36:33;;;;;;;9.50;4.68;;;18.60;80.30;;;;;;5072907;28;20032;-76
2022/03/27 09:39:22;;;;;;;13.67;5.33;;;18.70;81.60;;;;;;5086030;28;20051;-76
2022/03/27 09:41:51;;;;;;;11.90;5.13;;;17.40;81.30;;;;;;5089069;28;20016;-76
2022/03/27 09:44:19;;;;;;;15.15;5.65;;;17.40;81.00;;;;;;5089082;28;20028;-77
2022/03/27 09:47:00;;;;;;;10.90;5.22;;;17.90;81.50;;;;;;5088910;28;20070;-77
2022/03/27 09:49:35;;;;;;;12.45;5.10;;;18.20;81.60;;;;;;5072149;28;20055;-76
2022/03/27 09:52:20;;;;;;;8.82;4.65;;;19.00;80.40;;;;;;5089010;28;20020;-76
2022/03/27 09:55:05;;;;;;;13.68;4.65;;;18.90;80.30;;;;;;5090599;28;20113;-77
2022/03/27 09:57:31;;;;;;;11.85;5.05;;;19.30;81.90;;;;;;5084993;28;20024;-77
2022/03/27 10:00:18;;;;;;;13.85;5.05;;;19.30;80.20;;;;;;5088796;28;20490;-76
2022/03/27 10:02:45;;;;;;;14.40;4.97;;;19.20;80.10;;;;;;5088697;28;20032;-76
2022/03/27 10:05:13;;;;;;;13.20;5.10;;;19.00;81.20;;;;;;5080367;28;20082;-77
2022/03/27 10:07:42;;;;;;;11.95;5.63;;;19.20;80.10;;;;;;5084179;28;20067;-76
2022/03/27 10:10:16;;;;;;;15.18;5.45;;;18.80;82.20;;;;;;5085883;28;20056;-77
2022/03/27 10:12:44;;;;;;;14.05;5.55;;;18.20;81.60;;;;;;5093920;28;20081;-77
2022/03/27 10:15:15;;;;;;;13.13;5.35;;;18.60;84.40;;;;;;5087201;28;20062;-76
2022/03/27 10:17:56;;;;;;;10.85;5.43;;;18.40;82.10;;;;;;5092688;28;20028;-76
2022/03/27 10:20:27;;;;;;;14.05;5.30;;;18.50;84.10;;;;;;5084458;28;20032;-76
2022/03/27 10:23:01;;;;;;;9.90;5.53;;;18.10;83.30;;;;;;5092167;28;20031;-76
2022/03/27 10:25:34;;;;;;;7.97;4.93;;;18.20;83.00;;;;;;5091914;28;20044;-76
2022/03/27 10:28:02;;;;;;;8.77;4.35;;;18.40;82.60;;;;;;5073031;28;20104;-76
2022/03/27 10:30:28;;;;;;;17.63;6.07;;;18.70;82.40;;;;;;5088184;28;20079;-77
2022/03/27 10:32:56;;;;;;;9.65;4.65;;;18.70;82.70;;;;;;5092418;28;20427;-77
2022/03/27 10:35:38;;;;;;;12.88;5.40;;;18.90;82.70;;;;;;5092376;28;20031;-77
2022/03/27 10:38:25;;;;;;;10.65;5.00;;;19.20;82.30;;;;;;5086337;28;20070;-76
2022/03/27 10:41:08;;;;;;;13.70;5.43;;;19.10;80.20;;;;;;5092208;28;20027;-76
2022/03/27 10:44:02;;;;;;;9.85;4.55;;;19.40;84.10;;;;;;5077348;28;20105;-76
2022/03/27 10:46:29;;;;;;;7.95;5.25;;;19.40;80.60;;;;;;5075710;28;20038;-77
2022/03/27 10:49:13;;;;;;;9.73;4.18;;;19.70;82.00;;;;;;5092828;28;20040;-76
2022/03/27 10:51:41;;;;;;;9.50;4.47;;;19.80;78.60;;;;;;5092947;28;20016;-76
2022/03/27 10:54:12;;;;;;;10.18;4.00;;;19.90;79.50;;;;;;5091906;28;20052;-77
2022/03/27 10:56:39;;;;;;;9.32;4.82;;;19.60;77.90;;;;;;5091148;28;20111;-77
2022/03/27 10:59:08;;;;;;;13.00;4.80;;;19.60;77.70;;;;;;5091081;28;20043;-77
2022/03/27 11:01:43;;;;;;;13.40;5.35;;;19.70;78.70;;;;;;5092426;28;20103;-77
2022/03/27 11:04:10;;;;;;;12.82;4.40;;;19.70;75.60;;;;;;5072157;28;20035;-76
2022/03/27 11:06:39;;;;;;;12.60;5.60;;;19.60;78.00;;;;;;5087339;28;20052;-76
2022/03/27 11:09:08;;;;;;;13.38;4.88;;;19.70;78.00;;;;;;5080682;28;20147;-76
2022/03/27 11:11:45;;;;;;;16.38;5.30;;;20.00;78.10;;;;;;5085347;28;20042;-77
2022/03/27 11:14:22;;;;;;;13.80;3.92;;;19.70;77.30;;;;;;5091752;28;20058;-76
2022/03/27 11:17:04;;;;;;;15.15;5.35;;;19.90;77.80;;;;;;5083925;28;20066;-77
2022/03/27 11:19:43;;;;;;;16.50;5.22;;;20.00;79.10;;;;;;5077329;28;20036;-78
2022/03/27 11:22:52;;;;;;;17.02;5.22;;;20.20;78.60;;;;;;5091734;28;20149;-78
2022/03/27 11:25:28;;;;;;;15.23;4.60;;;20.20;76.30;;;;;;5073608;28;20036;-77
2022/03/27 11:28:15;;;;;;;16.38;5.30;;;19.70;75.70;;;;;;5074691;28;20557;-76
2022/03/27 11:30:50;;;;;;;20.80;5.32;;;19.70;76.00;;;;;;5093348;28;20027;-76
2022/03/27 11:33:19;;;;;;;19.48;5.38;;;19.90;77.60;;;;;;5091914;28;20035;-77
2022/03/27 11:36:11;;;;;;;14.23;4.93;;;20.00;78.10;;;;;;5089123;28;20070;-77
2022/03/27 11:38:52;;;;;;;20.38;5.53;;;20.30;77.30;;;;;;5090934;28;20016;-77
2022/03/27 11:41:30;;;;;;;15.80;4.65;;;20.40;77.90;;;;;;5082930;28;20048;-76
2022/03/27 11:44:16;;;;;;;16.25;4.43;;;19.90;74.80;;;;;;5091203;28;20028;-76
2022/03/27 11:46:55;;;;;;;16.45;4.97;;;19.90;77.10;;;;;;5086407;28;20058;-76
2022/03/27 11:49:23;;;;;;;14.68;5.43;;;20.10;75.50;;;;;;5074983;28;20044;-75
2022/03/27 11:52:05;;;;;;;19.42;5.32;;;19.70;75.60;;;;;;5092926;28;20102;-76
2022/03/27 11:54:31;;;;;;;14.55;5.10;;;20.20;76.20;;;;;;5077812;28;20079;-76
2022/03/27 11:56:58;;;;;;;18.48;5.78;;;19.80;74.40;;;;;;5087158;28;20494;-76
2022/03/27 11:59:28;;;;;;;13.77;4.32;;;19.80;74.60;;;;;;5090483;28;20073;-76
2022/03/27 12:01:57;;;;;;;17.23;4.78;;;19.90;75.20;;;;;;5091078;28;20035;-78
2022/03/27 12:04:23;;;;;;;15.73;5.00;;;20.10;75.40;;;;;;5086294;28;20032;-76
2022/03/27 12:06:56;;;;;;;12.60;4.32;;;20.30;74.70;;;;;;5088149;28;20015;-76
2022/03/27 12:09:27;;;;;;;12.48;4.05;;;20.10;73.70;;;;;;5084329;28;20057;-76
2022/03/27 12:12:03;;;;;;;;;;;20.00;72.30;;;;;;5089816;28;20057;-76
2022/03/27 12:14:28;;;;;;;23.90;4.95;;;20.20;72.70;;;;;;5081292;28;19908;-75
2022/03/27 12:16:54;;;;;;;12.75;4.05;;;20.00;71.60;;;;;;5079243;28;20038;-76
2022/03/27 12:19:20;;;;;;;14.30;3.63;;;20.40;75.50;;;;;;5090920;28;20150;-76
2022/03/27 12:21:48;;;;;;;15.13;3.95;;;20.60;75.70;;;;;;5092566;28;20413;-76
2022/03/27 12:24:16;;;;;;;13.13;3.30;;;20.60;73.20;;;;;;5084362;28;20036;-76
2022/03/27 12:29:40;;;;;;;10.38;3.67;;;20.50;72.20;;;;;;5089496;28;20031;-76
2022/03/27 12:32:08;;;;;;;12.27;3.90;;;20.70;74.20;;;;;;5089898;28;20034;-76
2022/03/27 12:34:43;;;;;;;13.50;4.07;;;20.30;73.30;;;;;;5089010;28;20508;-76
2022/03/27 12:37:19;;;;;;;12.80;4.18;;;20.50;73.30;;;;;;5090075;28;20020;-76
2022/03/27 12:39:47;;;;;;;13.35;3.83;;;20.30;71.90;;;;;;5092123;28;20039;-76
2022/03/27 12:42:28;;;;;;;12.07;4.32;;;20.40;73.00;;;;;;5089977;28;20038;-76
2022/03/27 12:44:59;;;;;;;15.18;5.15;;;20.40;71.20;;;;;;5089878;28;20039;-77
2022/03/27 12:47:38;;;;;;;16.35;4.35;;;20.20;70.60;;;;;;5090030;28;20545;-76
2022/03/27 12:50:06;;;;;;;11.10;3.75;;;20.30;71.10;;;;;;5088910;28;20035;-76
2022/03/27 12:52:32;;;;;;;14.57;4.43;;;20.20;70.30;;;;;;5085679;28;20021;-76
2022/03/27 12:55:05;;;;;;;13.65;4.07;;;20.50;71.90;;;;;;5086151;28;20048;-76
2022/03/27 12:57:50;;;;;;;19.83;4.60;;;20.60;70.60;;;;;;5090140;28;20021;-76
2022/03/27 13:00:17;;;;;;;13.02;4.13;;;20.40;70.30;;;;;;5089162;28;20032;-76
2022/03/27 13:02:43;;;;;;;17.30;4.57;;;20.40;69.20;;;;;;5088879;28;20143;-76
2022/03/27 13:05:09;;;;;;;16.88;4.30;;;20.40;69.50;;;;;;5089168;28;20054;-76
2022/03/27 13:07:54;;;;;;;15.00;3.97;;;20.60;69.50;;;;;;5089427;28;20484;-76
2022/03/27 13:10:22;;;;;;;13.50;3.85;;;20.60;70.30;;;;;;5073289;28;20024;-76
2022/03/27 13:13:05;;;;;;;14.77;3.90;;;20.50;68.70;;;;;;5090350;28;20111;-76